sensor_id;sensor_type;location;lat;lon;timestamp;temperature;humidity
67893;DHT22;54688;52.376;16.744;2023-07-31T00:02:21;15.2;80.2
67893;DHT22;54688;52.376;16.744;2023-07-31T00:05:23;15.2;80.2
67893;DHT22;54688;52.376;16.744;2023-07-31T00:08:24;15.2;80.4
67893;DHT22;54688;52.376;16.744;2023-07-31T00:11:27;15.1;81
67893;DHT22;54688;52.376;16.744;2023-07-31T00:14:30;15.1;80.4
67893;DHT22;54688;52.376;16.744;2023-07-31T00:17:32;15.1;80.6
67893;DHT22;54688;52.376;16.744;2023-07-31T00:20:33;15;80.6
67893;DHT22;54688;52.376;16.744;2023-07-31T00:26:34;15;80.5
67893;DHT22;54688;52.376;16.744;2023-07-31T00:29:36;14.9;80.6
67893;DHT22;54688;52.376;16.744;2023-07-31T00:32:38;14.8;80.6
67893;DHT22;54688;52.376;16.744;2023-07-31T00:35:40;14.7;80.9
67893;DHT22;54688;52.376;16.744;2023-07-31T00:38:42;14.7;80.8
67893;DHT22;54688;52.376;16.744;2023-07-31T00:41:44;14.7;81.1
67893;DHT22;54688;52.376;16.744;2023-07-31T00:44:46;14.6;81
67893;DHT22;54688;52.376;16.744;2023-07-31T00:47:48;14.5;81.2
67893;DHT22;54688;52.376;16.744;2023-07-31T00:50:50;14.5;81.2
67893;DHT22;54688;52.376;16.744;2023-07-31T00:53:52;14.4;81.4
67893;DHT22;54688;52.376;16.744;2023-07-31T00:56:54;14.4;81.3
67893;DHT22;54688;52.376;16.744;2023-07-31T00:59:57;14.3;81.7
67893;DHT22;54688;52.376;16.744;2023-07-31T01:02:58;14.2;82
67893;DHT22;54688;52.376;16.744;2023-07-31T01:06:07;14.2;82.2
67893;DHT22;54688;52.376;16.744;2023-07-31T01:09:19;14.1;82.5
67893;DHT22;54688;52.376;16.744;2023-07-31T01:12:25;14.1;82.7
67893;DHT22;54688;52.376;16.744;2023-07-31T01:15:29;14;82.9
67893;DHT22;54688;52.376;16.744;2023-07-31T01:18:31;14;83.1
67893;DHT22;54688;52.376;16.744;2023-07-31T01:21:40;14;83.9
67893;DHT22;54688;52.376;16.744;2023-07-31T01:24:55;13.9;83.3
67893;DHT22;54688;52.376;16.744;2023-07-31T01:28:07;14;83.4
67893;DHT22;54688;52.376;16.744;2023-07-31T01:31:18;13.9;83.3
67893;DHT22;54688;52.376;16.744;2023-07-31T01:34:24;13.9;83.2
67893;DHT22;54688;52.376;16.744;2023-07-31T01:37:28;13.8;83.1
67893;DHT22;54688;52.376;16.744;2023-07-31T01:40:30;13.8;83.3
67893;DHT22;54688;52.376;16.744;2023-07-31T01:43:32;13.8;83.4
67893;DHT22;54688;52.376;16.744;2023-07-31T01:46:35;13.8;83.4
67893;DHT22;54688;52.376;16.744;2023-07-31T01:49:36;13.8;83.5
67893;DHT22;54688;52.376;16.744;2023-07-31T01:52:38;13.8;83.5
67893;DHT22;54688;52.376;16.744;2023-07-31T01:55:40;13.7;83.5
67893;DHT22;54688;52.376;16.744;2023-07-31T01:58:42;13.7;83.5
67893;DHT22;54688;52.376;16.744;2023-07-31T02:01:44;13.8;83.7
67893;DHT22;54688;52.376;16.744;2023-07-31T02:04:47;13.7;83.9
67893;DHT22;54688;52.376;16.744;2023-07-31T02:07:48;13.7;83.7
67893;DHT22;54688;52.376;16.744;2023-07-31T02:10:50;13.7;83.7
67893;DHT22;54688;52.376;16.744;2023-07-31T02:13:52;13.7;83.7
67893;DHT22;54688;52.376;16.744;2023-07-31T02:16:54;13.6;83.7
67893;DHT22;54688;52.376;16.744;2023-07-31T02:19:56;13.6;83.8
67893;DHT22;54688;52.376;16.744;2023-07-31T02:22:58;13.6;84
67893;DHT22;54688;52.376;16.744;2023-07-31T02:26:00;13.6;84.2
67893;DHT22;54688;52.376;16.744;2023-07-31T02:29:02;13.6;84.4
67893;DHT22;54688;52.376;16.744;2023-07-31T02:32:04;13.5;84.3
67893;DHT22;54688;52.376;16.744;2023-07-31T02:35:07;13.5;84.2
67893;DHT22;54688;52.376;16.744;2023-07-31T02:38:09;13.5;84.2
67893;DHT22;54688;52.376;16.744;2023-07-31T02:41:11;13.5;84.3
67893;DHT22;54688;52.376;16.744;2023-07-31T02:44:13;13.5;84.4
67893;DHT22;54688;52.376;16.744;2023-07-31T02:47:15;13.4;84.3
67893;DHT22;54688;52.376;16.744;2023-07-31T02:50:17;13.4;84.4
67893;DHT22;54688;52.376;16.744;2023-07-31T02:53:20;13.4;84.3
67893;DHT22;54688;52.376;16.744;2023-07-31T02:56:21;13.3;84.2
67893;DHT22;54688;52.376;16.744;2023-07-31T02:59:23;13.3;85.2
67893;DHT22;54688;52.376;16.744;2023-07-31T03:02:25;13.2;84.1
67893;DHT22;54688;52.376;16.744;2023-07-31T03:05:27;13.2;84.3
67893;DHT22;54688;52.376;16.744;2023-07-31T03:08:29;13.1;84.3
67893;DHT22;54688;52.376;16.744;2023-07-31T03:11:31;13.1;84.4
67893;DHT22;54688;52.376;16.744;2023-07-31T03:14:33;13;84.5
67893;DHT22;54688;52.376;16.744;2023-07-31T03:17:35;13;85
67893;DHT22;54688;52.376;16.744;2023-07-31T03:20:37;13;84.7
67893;DHT22;54688;52.376;16.744;2023-07-31T03:23:43;13;84.8
67893;DHT22;54688;52.376;16.744;2023-07-31T03:26:45;13;84.9
67893;DHT22;54688;52.376;16.744;2023-07-31T03:29:46;13;85.2
67893;DHT22;54688;52.376;16.744;2023-07-31T03:32:48;13;85.3
67893;DHT22;54688;52.376;16.744;2023-07-31T03:35:50;13;85.1
67893;DHT22;54688;52.376;16.744;2023-07-31T03:38:53;13;85.5
67893;DHT22;54688;52.376;16.744;2023-07-31T03:41:55;13;85.6
67893;DHT22;54688;52.376;16.744;2023-07-31T03:44:58;13;85.9
67893;DHT22;54688;52.376;16.744;2023-07-31T03:47:59;13;85.9
67893;DHT22;54688;52.376;16.744;2023-07-31T03:51:03;13;85.9
67893;DHT22;54688;52.376;16.744;2023-07-31T03:54:06;13.1;85.9
67893;DHT22;54688;52.376;16.744;2023-07-31T03:57:08;13.1;85.8
67893;DHT22;54688;52.376;16.744;2023-07-31T04:00:10;13.1;86
67893;DHT22;54688;52.376;16.744;2023-07-31T04:03:12;13.1;86.3
67893;DHT22;54688;52.376;16.744;2023-07-31T04:06:14;13.1;86.4
67893;DHT22;54688;52.376;16.744;2023-07-31T04:09:15;13.2;86.4
67893;DHT22;54688;52.376;16.744;2023-07-31T04:12:18;13.2;86.4
67893;DHT22;54688;52.376;16.744;2023-07-31T04:15:20;13.3;86.5
67893;DHT22;54688;52.376;16.744;2023-07-31T04:18:24;13.3;86.5
67893;DHT22;54688;52.376;16.744;2023-07-31T04:21:26;13.3;86.6
67893;DHT22;54688;52.376;16.744;2023-07-31T04:27:27;13.4;86.7
67893;DHT22;54688;52.376;16.744;2023-07-31T04:30:29;13.5;86.7
67893;DHT22;54688;52.376;16.744;2023-07-31T04:33:31;13.5;87.3
67893;DHT22;54688;52.376;16.744;2023-07-31T04:36:33;13.5;86.7
67893;DHT22;54688;52.376;16.744;2023-07-31T04:39:36;13.5;86.6
67893;DHT22;54688;52.376;16.744;2023-07-31T04:45:35;13.6;86.7
67893;DHT22;54688;52.376;16.744;2023-07-31T04:48:37;13.6;86.6
67893;DHT22;54688;52.376;16.744;2023-07-31T04:51:39;13.7;86.7
67893;DHT22;54688;52.376;16.744;2023-07-31T04:54:42;13.7;86.4
67893;DHT22;54688;52.376;16.744;2023-07-31T04:57:44;13.7;86.2
67893;DHT22;54688;52.376;16.744;2023-07-31T05:00:46;13.8;86.2
67893;DHT22;54688;52.376;16.744;2023-07-31T05:03:48;13.8;86.1
67893;DHT22;54688;52.376;16.744;2023-07-31T05:06:50;13.7;86.1
67893;DHT22;54688;52.376;16.744;2023-07-31T05:09:52;13.8;86.1
67893;DHT22;54688;52.376;16.744;2023-07-31T05:12:54;13.8;86.1
67893;DHT22;54688;52.376;16.744;2023-07-31T05:15:56;13.9;86.2
67893;DHT22;54688;52.376;16.744;2023-07-31T05:18:58;13.9;86.2
67893;DHT22;54688;52.376;16.744;2023-07-31T05:22:00;13.9;86.3
67893;DHT22;54688;52.376;16.744;2023-07-31T05:28:01;14.1;86.3
67893;DHT22;54688;52.376;16.744;2023-07-31T05:31:05;14.2;86.4
67893;DHT22;54688;52.376;16.744;2023-07-31T05:34:07;14.3;86.3
67893;DHT22;54688;52.376;16.744;2023-07-31T05:37:10;14.4;86.4
67893;DHT22;54688;52.376;16.744;2023-07-31T05:40:12;14.5;86.3
67893;DHT22;54688;52.376;16.744;2023-07-31T05:43:14;14.7;85.9
67893;DHT22;54688;52.376;16.744;2023-07-31T05:46:16;14.9;85.4
67893;DHT22;54688;52.376;16.744;2023-07-31T05:49:18;15;84.7
67893;DHT22;54688;52.376;16.744;2023-07-31T05:52:19;15.1;84.1
67893;DHT22;54688;52.376;16.744;2023-07-31T05:55:21;15.2;83.6
67893;DHT22;54688;52.376;16.744;2023-07-31T05:58:23;15.3;83.2
67893;DHT22;54688;52.376;16.744;2023-07-31T06:01:25;15.4;82.4
67893;DHT22;54688;52.376;16.744;2023-07-31T06:04:27;15.5;82.3
67893;DHT22;54688;52.376;16.744;2023-07-31T06:07:29;15.6;82.1
67893;DHT22;54688;52.376;16.744;2023-07-31T06:10:32;15.7;81.8
67893;DHT22;54688;52.376;16.744;2023-07-31T06:13:34;15.8;81.4
67893;DHT22;54688;52.376;16.744;2023-07-31T06:16:37;15.9;80.8
67893;DHT22;54688;52.376;16.744;2023-07-31T06:19:38;16.1;80.4
67893;DHT22;54688;52.376;16.744;2023-07-31T06:22:40;16.2;79
67893;DHT22;54688;52.376;16.744;2023-07-31T06:25:42;16.3;78.6
67893;DHT22;54688;52.376;16.744;2023-07-31T06:28:44;16.3;78.6
67893;DHT22;54688;52.376;16.744;2023-07-31T06:31:46;16.4;78.5
67893;DHT22;54688;52.376;16.744;2023-07-31T06:34:48;16.5;77.6
67893;DHT22;54688;52.376;16.744;2023-07-31T06:37:51;16.6;77.4
67893;DHT22;54688;52.376;16.744;2023-07-31T06:40:53;16.8;76.6
67893;DHT22;54688;52.376;16.744;2023-07-31T06:43:56;16.8;76
67893;DHT22;54688;52.376;16.744;2023-07-31T06:46:58;16.8;75.4
67893;DHT22;54688;52.376;16.744;2023-07-31T06:50:00;16.9;74.8
67893;DHT22;54688;52.376;16.744;2023-07-31T06:53:04;16.9;74.8
67893;DHT22;54688;52.376;16.744;2023-07-31T06:56:05;16.9;74.8
67893;DHT22;54688;52.376;16.744;2023-07-31T06:59:07;17;73.9
67893;DHT22;54688;52.376;16.744;2023-07-31T07:02:10;17;73.2
67893;DHT22;54688;52.376;16.744;2023-07-31T07:05:13;17;72.6
67893;DHT22;54688;52.376;16.744;2023-07-31T07:08:15;17;72.8
67893;DHT22;54688;52.376;16.744;2023-07-31T07:11:16;17;72.8
67893;DHT22;54688;52.376;16.744;2023-07-31T07:14:19;17.1;71.4
67893;DHT22;54688;52.376;16.744;2023-07-31T07:17:22;17.1;70.2
67893;DHT22;54688;52.376;16.744;2023-07-31T07:20:25;17.2;70.8
67893;DHT22;54688;52.376;16.744;2023-07-31T07:23:27;17.2;70.3
67893;DHT22;54688;52.376;16.744;2023-07-31T07:26:31;17.3;69.9
67893;DHT22;54688;52.376;16.744;2023-07-31T07:29:33;17.3;69.8
67893;DHT22;54688;52.376;16.744;2023-07-31T07:32:35;17.3;69.6
67893;DHT22;54688;52.376;16.744;2023-07-31T07:35:38;17.3;68.8
67893;DHT22;54688;52.376;16.744;2023-07-31T07:38:40;17.2;69.3
67893;DHT22;54688;52.376;16.744;2023-07-31T07:41:42;17.3;69.7
67893;DHT22;54688;52.376;16.744;2023-07-31T07:44:44;17.3;68.9
67893;DHT22;54688;52.376;16.744;2023-07-31T07:47:46;17.2;70
67893;DHT22;54688;52.376;16.744;2023-07-31T07:50:49;17.2;69.5
67893;DHT22;54688;52.376;16.744;2023-07-31T07:53:51;17;70.2
67893;DHT22;54688;52.376;16.744;2023-07-31T07:56:54;17;72
67893;DHT22;54688;52.376;16.744;2023-07-31T07:59:56;17;72.6
67893;DHT22;54688;52.376;16.744;2023-07-31T08:02:58;16.9;72
67893;DHT22;54688;52.376;16.744;2023-07-31T08:06:00;16.9;72.8
67893;DHT22;54688;52.376;16.744;2023-07-31T08:09:03;16.9;72.5
67893;DHT22;54688;52.376;16.744;2023-07-31T08:12:05;16.8;72.7
67893;DHT22;54688;52.376;16.744;2023-07-31T08:15:09;16.8;73.7
67893;DHT22;54688;52.376;16.744;2023-07-31T08:18:11;16.9;73.1
67893;DHT22;54688;52.376;16.744;2023-07-31T08:21:14;16.9;73.4
67893;DHT22;54688;52.376;16.744;2023-07-31T08:24:16;17;72.9
67893;DHT22;54688;52.376;16.744;2023-07-31T08:27:18;17.1;72.2
67893;DHT22;54688;52.376;16.744;2023-07-31T08:30:20;17.1;70.7
67893;DHT22;54688;52.376;16.744;2023-07-31T08:33:23;17.2;71
67893;DHT22;54688;52.376;16.744;2023-07-31T08:36:25;17.2;72.5
67893;DHT22;54688;52.376;16.744;2023-07-31T08:39:28;17.3;72.2
67893;DHT22;54688;52.376;16.744;2023-07-31T08:42:31;17.3;71.7
67893;DHT22;54688;52.376;16.744;2023-07-31T08:45:34;17.4;70.4
67893;DHT22;54688;52.376;16.744;2023-07-31T08:48:37;17.5;70.1
67893;DHT22;54688;52.376;16.744;2023-07-31T08:51:39;17.6;69.7
67893;DHT22;54688;52.376;16.744;2023-07-31T08:54:42;17.7;68.5
67893;DHT22;54688;52.376;16.744;2023-07-31T08:57:44;17.7;68.1
67893;DHT22;54688;52.376;16.744;2023-07-31T09:00:47;17.8;69.3
67893;DHT22;54688;52.376;16.744;2023-07-31T09:03:50;17.9;68.1
67893;DHT22;54688;52.376;16.744;2023-07-31T09:06:55;17.9;68.2
67893;DHT22;54688;52.376;16.744;2023-07-31T09:10:01;18;66.9
67893;DHT22;54688;52.376;16.744;2023-07-31T09:13:04;18;67.2
67893;DHT22;54688;52.376;16.744;2023-07-31T09:16:08;17.9;67
67893;DHT22;54688;52.376;16.744;2023-07-31T09:19:10;17.8;67.1
67893;DHT22;54688;52.376;16.744;2023-07-31T09:22:14;17.8;67.3
67893;DHT22;54688;52.376;16.744;2023-07-31T09:25:16;17.7;69.1
67893;DHT22;54688;52.376;16.744;2023-07-31T09:28:19;17.7;68.2
67893;DHT22;54688;52.376;16.744;2023-07-31T09:31:31;17.6;67
67893;DHT22;54688;52.376;16.744;2023-07-31T09:34:37;17.5;68.8
67893;DHT22;54688;52.376;16.744;2023-07-31T09:37:39;17.4;70.5
67893;DHT22;54688;52.376;16.744;2023-07-31T09:40:42;17.2;72.6
67893;DHT22;54688;52.376;16.744;2023-07-31T09:43:51;17;73.1
67893;DHT22;54688;52.376;16.744;2023-07-31T09:46:55;16.8;74.1
67893;DHT22;54688;52.376;16.744;2023-07-31T09:49:56;16.8;75.4
67893;DHT22;54688;52.376;16.744;2023-07-31T09:52:58;16.6;76.3
67893;DHT22;54688;52.376;16.744;2023-07-31T09:55:59;16.5;78
67893;DHT22;54688;52.376;16.744;2023-07-31T09:59:04;16.5;78.4
67893;DHT22;54688;52.376;16.744;2023-07-31T10:02:06;16.5;78.5
67893;DHT22;54688;52.376;16.744;2023-07-31T10:05:10;16.5;78.5
67893;DHT22;54688;52.376;16.744;2023-07-31T10:08:16;16.6;79
67893;DHT22;54688;52.376;16.744;2023-07-31T10:11:22;16.6;79.1
67893;DHT22;54688;52.376;16.744;2023-07-31T10:14:26;16.7;79.5
67893;DHT22;54688;52.376;16.744;2023-07-31T10:17:30;16.7;79.7
67893;DHT22;54688;52.376;16.744;2023-07-31T10:20:33;16.7;79.9
67893;DHT22;54688;52.376;16.744;2023-07-31T10:23:35;16.7;80
67893;DHT22;54688;52.376;16.744;2023-07-31T10:26:38;16.7;80.2
67893;DHT22;54688;52.376;16.744;2023-07-31T10:29:41;16.7;79.5
67893;DHT22;54688;52.376;16.744;2023-07-31T10:32:45;16.6;79.1
67893;DHT22;54688;52.376;16.744;2023-07-31T10:35:49;16.6;80
67893;DHT22;54688;52.376;16.744;2023-07-31T10:38:50;16.5;80.2
67893;DHT22;54688;52.376;16.744;2023-07-31T10:41:53;16.5;80.6
67893;DHT22;54688;52.376;16.744;2023-07-31T10:47:58;16.6;82.4
67893;DHT22;54688;52.376;16.744;2023-07-31T10:51:06;16.7;83.4
67893;DHT22;54688;52.376;16.744;2023-07-31T10:54:10;16.9;82.1
67893;DHT22;54688;52.376;16.744;2023-07-31T10:57:18;17;82.3
67893;DHT22;54688;52.376;16.744;2023-07-31T11:00:24;17.1;80.8
67893;DHT22;54688;52.376;16.744;2023-07-31T11:03:40;17.2;79.8
67893;DHT22;54688;52.376;16.744;2023-07-31T11:06:46;17.2;80.9
67893;DHT22;54688;52.376;16.744;2023-07-31T11:12:56;17.5;78.6
67893;DHT22;54688;52.376;16.744;2023-07-31T11:15:58;17.5;78.2
67893;DHT22;54688;52.376;16.744;2023-07-31T11:19:00;17.5;78.5
67893;DHT22;54688;52.376;16.744;2023-07-31T11:22:03;17.4;77.1
67893;DHT22;54688;52.376;16.744;2023-07-31T11:25:05;17.4;77.8
67893;DHT22;54688;52.376;16.744;2023-07-31T11:28:09;17.3;77.8
67893;DHT22;54688;52.376;16.744;2023-07-31T11:31:12;17.3;77.5
67893;DHT22;54688;52.376;16.744;2023-07-31T11:34:14;17.2;78.1
67893;DHT22;54688;52.376;16.744;2023-07-31T11:37:17;17.1;78.1
67893;DHT22;54688;52.376;16.744;2023-07-31T11:40:19;17.1;77.9
67893;DHT22;54688;52.376;16.744;2023-07-31T11:43:22;17;77.6
67893;DHT22;54688;52.376;16.744;2023-07-31T11:46:24;17;78.6
67893;DHT22;54688;52.376;16.744;2023-07-31T11:49:26;16.9;79.3
67893;DHT22;54688;52.376;16.744;2023-07-31T11:52:29;16.9;81
67893;DHT22;54688;52.376;16.744;2023-07-31T11:55:33;17;81
67893;DHT22;54688;52.376;16.744;2023-07-31T11:58:37;17.2;80.7
67893;DHT22;54688;52.376;16.744;2023-07-31T12:01:39;17.3;80.9
67893;DHT22;54688;52.376;16.744;2023-07-31T12:04:42;17.4;78.4
67893;DHT22;54688;52.376;16.744;2023-07-31T12:07:46;17.4;78.2
67893;DHT22;54688;52.376;16.744;2023-07-31T12:10:49;17.5;78
67893;DHT22;54688;52.376;16.744;2023-07-31T12:13:52;17.6;78.6
67893;DHT22;54688;52.376;16.744;2023-07-31T12:16:55;17.7;77.7
67893;DHT22;54688;52.376;16.744;2023-07-31T12:19:58;17.9;78.5
67893;DHT22;54688;52.376;16.744;2023-07-31T12:23:00;18.1;75.8
67893;DHT22;54688;52.376;16.744;2023-07-31T12:26:03;18.2;75.7
67893;DHT22;54688;52.376;16.744;2023-07-31T12:29:08;18.2;73.9
67893;DHT22;54688;52.376;16.744;2023-07-31T12:32:20;18.2;74.7
67893;DHT22;54688;52.376;16.744;2023-07-31T12:35:23;18.1;73.9
67893;DHT22;54688;52.376;16.744;2023-07-31T12:38:26;18.1;73.8
67893;DHT22;54688;52.376;16.744;2023-07-31T12:41:28;18.1;74.4
67893;DHT22;54688;52.376;16.744;2023-07-31T12:44:31;18.2;74.9
67893;DHT22;54688;52.376;16.744;2023-07-31T12:47:32;18.4;74.5
67893;DHT22;54688;52.376;16.744;2023-07-31T12:50:39;18.5;72.2
67893;DHT22;54688;52.376;16.744;2023-07-31T12:53:42;18.6;70.4
67893;DHT22;54688;52.376;16.744;2023-07-31T12:56:43;18.5;71.6
67893;DHT22;54688;52.376;16.744;2023-07-31T12:59:45;18.6;71.1
67893;DHT22;54688;52.376;16.744;2023-07-31T13:02:47;18.7;71.9
67893;DHT22;54688;52.376;16.744;2023-07-31T13:05:50;18.8;71.6
67893;DHT22;54688;52.376;16.744;2023-07-31T13:08:52;18.9;70.6
67893;DHT22;54688;52.376;16.744;2023-07-31T13:11:54;18.9;70.6
67893;DHT22;54688;52.376;16.744;2023-07-31T13:14:56;18.9;71.3
67893;DHT22;54688;52.376;16.744;2023-07-31T13:17:58;18.9;70.6
67893;DHT22;54688;52.376;16.744;2023-07-31T13:21:00;18.8;70.9
67893;DHT22;54688;52.376;16.744;2023-07-31T13:24:02;18.8;70.8
67893;DHT22;54688;52.376;16.744;2023-07-31T13:27:05;18.7;71.4
67893;DHT22;54688;52.376;16.744;2023-07-31T13:30:07;18.6;71.7
67893;DHT22;54688;52.376;16.744;2023-07-31T13:33:10;18.6;70.8
67893;DHT22;54688;52.376;16.744;2023-07-31T13:36:12;18.5;71.3
67893;DHT22;54688;52.376;16.744;2023-07-31T13:39:14;18.5;71.9
67893;DHT22;54688;52.376;16.744;2023-07-31T13:42:17;18.5;72.2
67893;DHT22;54688;52.376;16.744;2023-07-31T13:45:20;18.7;72.1
67893;DHT22;54688;52.376;16.744;2023-07-31T13:48:22;18.8;72.3
67893;DHT22;54688;52.376;16.744;2023-07-31T13:51:24;18.9;72.1
67893;DHT22;54688;52.376;16.744;2023-07-31T13:54:26;19.1;70.3
67893;DHT22;54688;52.376;16.744;2023-07-31T13:57:29;19.3;68.3
67893;DHT22;54688;52.376;16.744;2023-07-31T14:00:32;19.4;69.4
67893;DHT22;54688;52.376;16.744;2023-07-31T14:03:34;19.5;68
67893;DHT22;54688;52.376;16.744;2023-07-31T14:06:38;19.5;68.2
67893;DHT22;54688;52.376;16.744;2023-07-31T14:09:39;19.7;68.9
67893;DHT22;54688;52.376;16.744;2023-07-31T14:12:42;19.8;69
67893;DHT22;54688;52.376;16.744;2023-07-31T14:15:44;20.1;68.5
67893;DHT22;54688;52.376;16.744;2023-07-31T14:18:46;20.3;66.2
67893;DHT22;54688;52.376;16.744;2023-07-31T14:21:48;20.5;66.9
67893;DHT22;54688;52.376;16.744;2023-07-31T14:24:50;20.6;64.9
67893;DHT22;54688;52.376;16.744;2023-07-31T14:27:52;20.7;65.8
67893;DHT22;54688;52.376;16.744;2023-07-31T14:30:56;20.9;62.6
67893;DHT22;54688;52.376;16.744;2023-07-31T14:33:58;21;60.9
67893;DHT22;54688;52.376;16.744;2023-07-31T14:37:02;21.2;62.7
67893;DHT22;54688;52.376;16.744;2023-07-31T14:40:04;21.6;62
67893;DHT22;54688;52.376;16.744;2023-07-31T14:43:07;22.1;60.5
67893;DHT22;54688;52.376;16.744;2023-07-31T14:46:10;22.6;59.2
67893;DHT22;54688;52.376;16.744;2023-07-31T14:49:13;22.9;57.1
67893;DHT22;54688;52.376;16.744;2023-07-31T14:52:15;23.1;57
67893;DHT22;54688;52.376;16.744;2023-07-31T14:55:18;23.1;55.2
67893;DHT22;54688;52.376;16.744;2023-07-31T14:58:20;23;55.2
67893;DHT22;54688;52.376;16.744;2023-07-31T15:01:23;23;54.4
67893;DHT22;54688;52.376;16.744;2023-07-31T15:04:25;22.9;54
67893;DHT22;54688;52.376;16.744;2023-07-31T15:07:27;22.8;55.3
67893;DHT22;54688;52.376;16.744;2023-07-31T15:10:30;22.6;55.1
67893;DHT22;54688;52.376;16.744;2023-07-31T15:13:34;22.5;55
67893;DHT22;54688;52.376;16.744;2023-07-31T15:16:37;22.3;53.5
67893;DHT22;54688;52.376;16.744;2023-07-31T15:19:39;22.3;52.6
67893;DHT22;54688;52.376;16.744;2023-07-31T15:22:41;22.1;53.8
67893;DHT22;54688;52.376;16.744;2023-07-31T15:25:43;22;53.5
67893;DHT22;54688;52.376;16.744;2023-07-31T15:28:48;22;53.9
67893;DHT22;54688;52.376;16.744;2023-07-31T15:31:51;22;52.6
67893;DHT22;54688;52.376;16.744;2023-07-31T15:34:54;22;52.2
67893;DHT22;54688;52.376;16.744;2023-07-31T15:37:58;22;51.8
67893;DHT22;54688;52.376;16.744;2023-07-31T15:40:59;21.9;53.2
67893;DHT22;54688;52.376;16.744;2023-07-31T15:44:02;22;52
67893;DHT22;54688;52.376;16.744;2023-07-31T15:47:05;21.9;52.8
67893;DHT22;54688;52.376;16.744;2023-07-31T15:50:07;21.9;53.7
67893;DHT22;54688;52.376;16.744;2023-07-31T15:53:10;21.8;52.1
67893;DHT22;54688;52.376;16.744;2023-07-31T15:56:12;21.8;52.8
67893;DHT22;54688;52.376;16.744;2023-07-31T15:59:15;21.8;52.5
67893;DHT22;54688;52.376;16.744;2023-07-31T16:02:17;21.9;53.1
67893;DHT22;54688;52.376;16.744;2023-07-31T16:05:20;22.2;52.2
67893;DHT22;54688;52.376;16.744;2023-07-31T16:08:22;22.4;51.6
67893;DHT22;54688;52.376;16.744;2023-07-31T16:11:24;22.4;50.8
67893;DHT22;54688;52.376;16.744;2023-07-31T16:14:27;22.3;52.2
67893;DHT22;54688;52.376;16.744;2023-07-31T16:17:29;22.2;52.2
67893;DHT22;54688;52.376;16.744;2023-07-31T16:20:31;22.1;52
67893;DHT22;54688;52.376;16.744;2023-07-31T16:23:34;22;51.8
67893;DHT22;54688;52.376;16.744;2023-07-31T16:26:36;22;52.3
67893;DHT22;54688;52.376;16.744;2023-07-31T16:29:39;21.9;52.6
67893;DHT22;54688;52.376;16.744;2023-07-31T16:32:41;21.8;53.7
67893;DHT22;54688;52.376;16.744;2023-07-31T16:35:43;21.7;53
67893;DHT22;54688;52.376;16.744;2023-07-31T16:41:45;21.7;53.7
67893;DHT22;54688;52.376;16.744;2023-07-31T16:44:47;21.7;52.8
67893;DHT22;54688;52.376;16.744;2023-07-31T16:47:49;21.6;53.6
67893;DHT22;54688;52.376;16.744;2023-07-31T16:50:52;21.7;53.9
67893;DHT22;54688;52.376;16.744;2023-07-31T16:53:54;21.6;53.4
67893;DHT22;54688;52.376;16.744;2023-07-31T16:56:57;21.6;52.7
67893;DHT22;54688;52.376;16.744;2023-07-31T16:59:59;21.7;53
67893;DHT22;54688;52.376;16.744;2023-07-31T17:03:02;21.7;53.1
67893;DHT22;54688;52.376;16.744;2023-07-31T17:06:05;21.8;52.7
67893;DHT22;54688;52.376;16.744;2023-07-31T17:09:07;21.8;52.1
67893;DHT22;54688;52.376;16.744;2023-07-31T17:12:10;21.8;52.6
67893;DHT22;54688;52.376;16.744;2023-07-31T17:15:12;21.7;52.6
67893;DHT22;54688;52.376;16.744;2023-07-31T17:18:14;21.6;52.8
67893;DHT22;54688;52.376;16.744;2023-07-31T17:21:17;21.5;54
67893;DHT22;54688;52.376;16.744;2023-07-31T17:24:19;21.4;52.7
67893;DHT22;54688;52.376;16.744;2023-07-31T17:27:22;21.2;52.8
67893;DHT22;54688;52.376;16.744;2023-07-31T17:30:24;21.1;53.3
67893;DHT22;54688;52.376;16.744;2023-07-31T17:33:26;21;54
67893;DHT22;54688;52.376;16.744;2023-07-31T17:36:29;20.9;53.1
67893;DHT22;54688;52.376;16.744;2023-07-31T17:39:31;20.8;54.7
67893;DHT22;54688;52.376;16.744;2023-07-31T17:42:33;20.7;55
67893;DHT22;54688;52.376;16.744;2023-07-31T17:45:36;20.7;55.4
67893;DHT22;54688;52.376;16.744;2023-07-31T17:48:38;20.7;55.4
67893;DHT22;54688;52.376;16.744;2023-07-31T17:51:41;20.7;55.7
67893;DHT22;54688;52.376;16.744;2023-07-31T17:54:42;20.6;55
67893;DHT22;54688;52.376;16.744;2023-07-31T17:57:45;20.6;54.9
67893;DHT22;54688;52.376;16.744;2023-07-31T18:00:47;20.5;55.8
67893;DHT22;54688;52.376;16.744;2023-07-31T18:03:49;20.4;55.9
67893;DHT22;54688;52.376;16.744;2023-07-31T18:06:50;20.3;56.2
67893;DHT22;54688;52.376;16.744;2023-07-31T18:09:52;20.2;56.6
67893;DHT22;54688;52.376;16.744;2023-07-31T18:12:54;20.2;57.1
67893;DHT22;54688;52.376;16.744;2023-07-31T18:15:57;20.1;58.3
67893;DHT22;54688;52.376;16.744;2023-07-31T18:18:59;20.1;57.6
67893;DHT22;54688;52.376;16.744;2023-07-31T18:22:01;20;57.7
67893;DHT22;54688;52.376;16.744;2023-07-31T18:25:04;20;58.2
67893;DHT22;54688;52.376;16.744;2023-07-31T18:28:07;19.9;58.7
67893;DHT22;54688;52.376;16.744;2023-07-31T18:31:09;19.8;58.6
67893;DHT22;54688;52.376;16.744;2023-07-31T18:34:11;19.8;58.6
67893;DHT22;54688;52.376;16.744;2023-07-31T18:37:13;19.8;58.9
67893;DHT22;54688;52.376;16.744;2023-07-31T18:40:15;19.7;58.8
67893;DHT22;54688;52.376;16.744;2023-07-31T18:43:18;19.6;59.8
67893;DHT22;54688;52.376;16.744;2023-07-31T18:46:19;19.6;59.2
67893;DHT22;54688;52.376;16.744;2023-07-31T18:49:22;19.5;59.8
67893;DHT22;54688;52.376;16.744;2023-07-31T18:52:24;19.5;59.9
67893;DHT22;54688;52.376;16.744;2023-07-31T18:55:27;19.4;60.2
67893;DHT22;54688;52.376;16.744;2023-07-31T18:58:29;19.4;60.2
67893;DHT22;54688;52.376;16.744;2023-07-31T19:01:32;19.4;60.3
67893;DHT22;54688;52.376;16.744;2023-07-31T19:04:35;19.4;61.3
67893;DHT22;54688;52.376;16.744;2023-07-31T19:10:36;19.3;60.1
67893;DHT22;54688;52.376;16.744;2023-07-31T19:13:39;19.2;60.8
67893;DHT22;54688;52.376;16.744;2023-07-31T19:16:41;19.3;60.9
67893;DHT22;54688;52.376;16.744;2023-07-31T19:19:44;19.2;60.9
67893;DHT22;54688;52.376;16.744;2023-07-31T19:22:45;19.2;61.4
67893;DHT22;54688;52.376;16.744;2023-07-31T19:25:48;19.1;61.7
67893;DHT22;54688;52.376;16.744;2023-07-31T19:28:50;19.1;61.9
67893;DHT22;54688;52.376;16.744;2023-07-31T19:31:52;19.1;61.7
67893;DHT22;54688;52.376;16.744;2023-07-31T19:34:54;19;62.1
67893;DHT22;54688;52.376;16.744;2023-07-31T19:37:57;19;62.4
67893;DHT22;54688;52.376;16.744;2023-07-31T19:40:59;19;62.4
67893;DHT22;54688;52.376;16.744;2023-07-31T19:44:02;18.9;63.2
67893;DHT22;54688;52.376;16.744;2023-07-31T19:47:04;18.9;62.4
67893;DHT22;54688;52.376;16.744;2023-07-31T19:50:07;18.8;63.6
67893;DHT22;54688;52.376;16.744;2023-07-31T19:53:09;18.8;63.1
67893;DHT22;54688;52.376;16.744;2023-07-31T19:56:12;18.7;64.4
67893;DHT22;54688;52.376;16.744;2023-07-31T19:59:13;18.7;64.1
67893;DHT22;54688;52.376;16.744;2023-07-31T20:05:15;18.6;63.5
67893;DHT22;54688;52.376;16.744;2023-07-31T20:08:17;18.6;64.2